Time,TemperatureF,DewpointF,PressureIn,WindDirection,WindDirectionDegrees,WindSpeedMPH,WindSpeedGustMPH,Humidity,HourlyPrecipIn,Conditions,Clouds,dailyrainin,SoftwareType,DateUTC
2013-01-16 01:00:00,30.0,27.0,29.83,North,-999,-999.0,-999.0,89,-99.99,,,-99.99,,2013-01-16 01:00:00,
2013-01-16 01:42:00,30.0,27.0,29.83,North,-999,-999.0,-999.0,89,-99.99,,,-99.99,,2013-01-16 01:42:00,
2013-01-16 01:52:00,30.0,27.0,29.83,North,-999,-999.0,-999.0,89,-99.99,,,-99.99,,2013-01-16 01:52:00,
2013-01-16 02:00:00,30.0,27.0,29.83,North,-999,-999.0,-999.0,90,-99.99,,,-99.99,,2013-01-16 02:00:00,
2013-01-16 02:32:00,30.0,27.0,29.83,North,-999,-999.0,-999.0,90,-99.99,,,-99.99,,2013-01-16 02:32:00,
2013-01-16 02:42:00,30.0,27.0,29.83,North,-999,-999.0,-999.0,90,-99.99,,,-99.99,,2013-01-16 02:42:00,
2013-01-16 02:52:00,30.0,27.0,29.83,North,-999,-999.0,-999.0,90,-99.99,,,-99.99,,2013-01-16 02:52:00,
2013-01-16 03:00:00,29.0,27.0,29.83,North,-999,-999.0,-999.0,90,-99.99,,,-99.99,,2013-01-16 03:00:00,
2013-01-16 03:42:00,29.0,27.0,29.83,North,-999,-999.0,-999.0,90,-99.99,,,-99.99,,2013-01-16 03:42:00,
2013-01-16 03:52:00,29.0,27.0,29.83,North,-999,-999.0,-999.0,90,-99.99,,,-99.99,,2013-01-16 03:52:00,
2013-01-16 04:42:00,29.0,27.0,29.83,North,-999,-999.0,-999.0,92,-99.99,,,-99.99,,2013-01-16 04:42:00,
2013-01-16 04:52:00,29.0,27.0,29.83,North,-999,-999.0,-999.0,92,-99.99,,,-99.99,,2013-01-16 04:52:00,
2013-01-16 06:00:00,36.0,-99.9,29.80,North,-999,-999.0,-999.0,-999,-99.99,,,-99.99,,2013-01-16 06:00:00,
2013-01-16 06:43:00,36.0,-99.9,29.80,North,-999,-999.0,-999.0,-999,-99.99,,,-99.99,,2013-01-16 06:43:00,
2013-01-16 06:53:00,36.0,-99.9,29.80,North,-999,-999.0,-999.0,-999,-99.99,,,-99.99,,2013-01-16 06:53:00,
2013-01-16 07:00:00,40.0,-99.9,29.78,North,-999,-999.0,-999.0,-999,-99.99,,,-99.99,,2013-01-16 07:00:00,
2013-01-16 07:42:00,40.0,-99.9,29.78,North,-999,-999.0,-999.0,-999,-99.99,,,-99.99,,2013-01-16 07:42:00,
2013-01-16 07:52:00,40.0,-99.9,29.78,North,-999,-999.0,-999.0,-999,-99.99,,,-99.99,,2013-01-16 07:52:00,
2013-01-16 08:00:00,40.0,-99.9,29.79,North,-999,-999.0,-999.0,-999,-99.99,,,-99.99,,2013-01-16 08:00:00,
2013-01-16 08:43:00,40.0,-99.9,29.79,North,-999,-999.0,-999.0,-999,-99.99,,,-99.99,,2013-01-16 08:43:00,
2013-01-16 08:53:00,40.0,-99.9,29.79,North,-999,-999.0,-999.0,-999,-99.99,,,-99.99,,2013-01-16 08:53:00,
2013-01-16 09:00:00,42.0,35.0,29.80,North,-999,-999.0,-999.0,77,-99.99,,,-99.99,,2013-01-16 09:00:00,
2013-01-16 09:42:00,42.0,35.0,29.80,North,-999,-999.0,-999.0,77,-99.99,,,-99.99,,2013-01-16 09:42:00,
2013-01-16 09:52:00,42.0,35.0,29.80,North,-999,-999.0,-999.0,77,-99.99,,,-99.99,,2013-01-16 09:52:00,
2013-01-16 10:00:00,42.0,36.0,29.80,North,-999,-999.0,-999.0,78,-99.99,,,-99.99,,2013-01-16 10:00:00,
2013-01-16 10:42:00,42.0,36.0,29.80,North,-999,-999.0,-999.0,78,-99.99,,,-99.99,,2013-01-16 10:42:00,
2013-01-16 10:52:00,42.0,36.0,29.80,North,-999,-999.0,-999.0,78,-99.99,,,-99.99,,2013-01-16 10:52:00,
2013-01-16 11:00:00,41.0,36.0,29.82,North,-999,-999.0,-999.0,82,-99.99,,,-99.99,,2013-01-16 11:00:00,
2013-01-16 11:42:00,41.0,36.0,29.82,North,-999,-999.0,-999.0,82,-99.99,,,-99.99,,2013-01-16 11:42:00,
2013-01-16 11:52:00,41.0,36.0,29.82,North,-999,-999.0,-999.0,82,-99.99,,,-99.99,,2013-01-16 11:52:00,
2013-01-16 12:00:00,40.0,38.0,29.83,North,-999,-999.0,-999.0,89,-99.99,,,-99.99,,2013-01-16 12:00:00,
2013-01-16 12:42:00,40.0,38.0,29.83,North,-999,-999.0,-999.0,89,-99.99,,,-99.99,,2013-01-16 12:42:00,
2013-01-16 12:52:00,40.0,38.0,29.83,North,-999,-999.0,-999.0,89,-99.99,,,-99.99,,2013-01-16 12:52:00,
2013-01-16 13:00:00,41.0,39.0,29.83,North,-999,-999.0,-999.0,93,-99.99,,,-99.99,,2013-01-16 13:00:00,
2013-01-16 13:42:00,41.0,39.0,29.83,North,-999,-999.0,-999.0,93,-99.99,,,-99.99,,2013-01-16 13:42:00,
2013-01-16 13:52:00,41.0,39.0,29.83,North,-999,-999.0,-999.0,93,-99.99,,,-99.99,,2013-01-16 13:52:00,
2013-01-16 14:00:00,41.0,39.0,29.82,North,-999,-999.0,-999.0,93,-99.99,,,-99.99,,2013-01-16 14:00:00,
2013-01-16 14:42:00,41.0,39.0,29.82,North,-999,-999.0,-999.0,93,-99.99,,,-99.99,,2013-01-16 14:42:00,
2013-01-16 14:52:00,41.0,39.0,29.82,North,-999,-999.0,-999.0,93,-99.99,,,-99.99,,2013-01-16 14:52:00,
2013-01-16 15:00:00,41.0,39.0,29.81,North,-999,-999.0,-999.0,93,-99.99,,,-99.99,,2013-01-16 15:00:00,
2013-01-16 15:42:00,41.0,39.0,29.81,North,-999,-999.0,-999.0,93,-99.99,,,-99.99,,2013-01-16 15:42:00,
2013-01-16 15:52:00,41.0,39.0,29.81,North,-999,-999.0,-999.0,93,-99.99,,,-99.99,,2013-01-16 15:52:00,
2013-01-16 16:00:00,42.0,40.0,29.81,North,-999,-999.0,-999.0,94,-99.99,,,-99.99,,2013-01-16 16:00:00,
2013-01-16 16:42:00,42.0,40.0,29.81,North,-999,-999.0,-999.0,94,-99.99,,,-99.99,,2013-01-16 16:42:00,
2013-01-16 16:52:00,42.0,40.0,29.81,North,-999,-999.0,-999.0,94,-99.99,,,-99.99,,2013-01-16 16:52:00,
2013-01-16 17:00:00,41.0,41.0,29.84,North,-999,-999.0,-999.0,97,-99.99,,,-99.99,,2013-01-16 17:00:00,
2013-01-16 17:42:00,41.0,41.0,29.84,North,-999,-999.0,-999.0,97,-99.99,,,-99.99,,2013-01-16 17:42:00,
2013-01-16 17:52:00,41.0,41.0,29.84,North,-999,-999.0,-999.0,97,-99.99,,,-99.99,,2013-01-16 17:52:00,
2013-01-16 18:00:00,40.0,37.0,29.88,North,-999,-999.0,-999.0,89,-99.99,,,-99.99,,2013-01-16 18:00:00,
2013-01-16 18:42:00,40.0,37.0,29.88,North,-999,-999.0,-999.0,89,-99.99,,,-99.99,,2013-01-16 18:42:00,
2013-01-16 18:52:00,40.0,37.0,29.88,North,-999,-999.0,-999.0,89,-99.99,,,-99.99,,2013-01-16 18:52:00,
2013-01-16 19:00:00,37.0,35.0,29.91,North,-999,-999.0,-999.0,93,-99.99,,,-99.99,,2013-01-16 19:00:00,
2013-01-16 19:42:00,37.0,35.0,29.91,North,-999,-999.0,-999.0,93,-99.99,,,-99.99,,2013-01-16 19:42:00,
2013-01-16 19:52:00,37.0,35.0,29.91,North,-999,-999.0,-999.0,93,-99.99,,,-99.99,,2013-01-16 19:52:00,
2013-01-16 20:00:00,38.0,34.0,29.94,North,-999,-999.0,-999.0,86,-99.99,,,-99.99,,2013-01-16 20:00:00,
2013-01-16 20:42:00,38.0,34.0,29.94,North,-999,-999.0,-999.0,86,-99.99,,,-99.99,,2013-01-16 20:42:00,
2013-01-16 20:52:00,38.0,34.0,29.94,North,-999,-999.0,-999.0,86,-99.99,,,-99.99,,2013-01-16 20:52:00,
2013-01-16 21:00:00,38.0,-99.9,29.95,North,-999,-999.0,-999.0,-999,-99.99,,,-99.99,,2013-01-16 21:00:00,
2013-01-16 21:43:00,38.0,-99.9,29.95,North,-999,-999.0,-999.0,-999,-99.99,,,-99.99,,2013-01-16 21:43:00,
2013-01-16 21:53:00,38.0,-99.9,29.95,North,-999,-999.0,-999.0,-999,-99.99,,,-99.99,,2013-01-16 21:53:00,